Weather History for Big Sandy Reg AP, Prestonsbur, KY

Change the Weather History Date:

Tuesday, February 18, 2014

  Actual Average Record
Temperature  
Mean Temperature 48 °F -  
Max Temperature 59 °F - - ()
Min Temperature 38 °F - - ()
Degree Days  
Heating Degree Days 16    
Moisture  
Dew Point 27 °F    
Average Humidity 48    
Maximum Humidity 72    
Minimum Humidity 25    
Precipitation  
Precipitation 0.00 in - - ()
Sea Level Pressure  
Sea Level Pressure 30.07 in    
Wind  
Wind Speed 9 mph (SW)    
Max Wind Speed 14 mph    
Max Gust Speed 30 mph    
Visibility 10 miles    
Events      
T = Trace of Precipitation, MM = Missing Value Source: NWS Daily Summary

Daily Weather History Graph

Daily Weather History Graph

Search for Another Location

Airport:

Trip Planner

Search our weather history database for the weather conditions in past years. The results will help you decide how hot, cold, wet, or windy it might be!

Date:

Astronomy

Feb. 18, 2014 Rise Set
Actual Time 7:16 AM EST 6:12 PM EST
Civil Twilight 6:49 AM EST 6:39 PM EST
Nautical Twilight 6:19 AM EST 7:10 PM EST
Astronomical Twilight 5:48 AM EST 7:40 PM EST
Moon 10:00 PM EST (2/18) 8:52 AM EST (2/18)
Length of Visible Light 11h 49m
Length of Day
10h 56m
Waning Gibbous, 87% of the Moon is Illuminated
Feb 18
Waning Gibbous
Feb 22
Last Quarter
Mar 1
New
Mar 8
First Quarter
Mar 16
Full

Hourly Weather History & Observations

Time (EST) Temp. Windchill Dew Point Humidity Pressure Visibility Wind Dir Wind Speed Gust Speed Precip Events Conditions
12:15 AM 43.7 °F 36.9 °F 30.7 °F 60% 30.03 in 10.0 mi West 13.8 mph 26.5 mph N/A   Clear
12:35 AM 42.3 °F 36.3 °F 31.6 °F 66% 30.04 in 10.0 mi WSW 10.4 mph - N/A   Scattered Clouds
12:55 AM 42.8 °F 37.0 °F 31.3 °F 64% 30.04 in 10.0 mi West 10.4 mph 29.9 mph N/A   Scattered Clouds
1:15 AM 41.9 °F 35.0 °F 31.1 °F 66% 30.04 in 10.0 mi West 12.7 mph 24.2 mph N/A   Scattered Clouds
1:35 AM 41.0 °F 34.3 °F 31.8 °F 70% 30.05 in 10.0 mi West 11.5 mph 24.2 mph N/A   Scattered Clouds
1:55 AM 41.4 °F 34.7 °F 31.8 °F 69% 30.06 in 10.0 mi West 11.5 mph 28.8 mph N/A   Overcast
2:15 AM 41.0 °F 35.2 °F 32.0 °F 70% 30.07 in 10.0 mi WSW 9.2 mph 21.9 mph N/A   Overcast
2:35 AM 40.3 °F 33.9 °F 32.0 °F 72% 30.07 in 10.0 mi WSW 10.4 mph 18.4 mph N/A   Scattered Clouds
2:55 AM 40.1 °F 34.7 °F 31.6 °F 72% 30.07 in 10.0 mi WSW 8.1 mph 18.4 mph N/A   Clear
3:15 AM 40.1 °F 34.1 °F 31.1 °F 70% 30.07 in 10.0 mi WSW 9.2 mph 24.2 mph N/A   Clear
3:35 AM 39.7 °F 33.2 °F 31.1 °F 71% 30.07 in 10.0 mi WSW 10.4 mph - N/A   Clear
3:55 AM 39.7 °F 33.7 °F 30.7 °F 70% 30.08 in 10.0 mi WSW 9.2 mph 16.1 mph N/A   Clear
4:15 AM 39.4 °F 32.7 °F 30.7 °F 71% 30.08 in 10.0 mi WSW 10.4 mph - N/A   Clear
4:35 AM 39.4 °F 32.7 °F 30.6 °F 71% 30.08 in 10.0 mi WSW 10.4 mph 18.4 mph N/A   Clear
4:55 AM 39.4 °F 34.5 °F 30.6 °F 71% 30.10 in 10.0 mi WSW 6.9 mph - N/A   Clear
5:15 AM 39.2 °F 33.6 °F 30.4 °F 71% 30.10 in 10.0 mi WSW 8.1 mph - N/A   Clear
5:35 AM 39.2 °F 34.2 °F 30.2 °F 70% 30.10 in 10.0 mi WSW 6.9 mph - N/A   Clear
5:55 AM 38.8 °F 33.2 °F 30.0 °F 71% 30.11 in 10.0 mi SW 8.1 mph - N/A   Clear
6:15 AM 39.0 °F 32.8 °F 30.0 °F 70% 30.12 in 10.0 mi SW 9.2 mph 17.3 mph N/A   Clear
6:35 AM 39.2 °F 32.5 °F 29.3 °F 68% 30.12 in 10.0 mi SW 10.4 mph 16.1 mph N/A   Clear
6:55 AM 39.2 °F 34.2 °F 29.8 °F 69% 30.13 in 10.0 mi WSW 6.9 mph - N/A   Clear
7:15 AM 39.6 °F 34.0 °F 29.3 °F 67% 30.14 in 10.0 mi WSW 8.1 mph - N/A   Clear
7:35 AM 39.6 °F 34.0 °F 29.5 °F 67% 30.16 in 10.0 mi SW 8.1 mph - N/A   Clear
7:55 AM 39.6 °F 33.5 °F 29.8 °F 68% 30.17 in 10.0 mi SW 9.2 mph - N/A   Clear
8:15 AM 40.3 °F 36.3 °F 29.7 °F 66% 30.17 in 10.0 mi SW 5.8 mph - N/A   Clear
8:35 AM 41.4 °F 36.8 °F 29.8 °F 64% 30.18 in 10.0 mi SW 6.9 mph - N/A   Clear
8:55 AM 42.8 °F 38.6 °F 29.8 °F 60% 30.19 in 10.0 mi SW 6.9 mph - N/A   Clear
9:15 AM 43.9 °F 39.3 °F 29.5 °F 57% 30.19 in 10.0 mi WSW 8.1 mph - N/A   Clear
9:35 AM 45.0 °F 40.6 °F 29.5 °F 55% 30.19 in 10.0 mi WSW 8.1 mph - N/A   Clear
9:55 AM 45.9 °F 40.8 °F 29.5 °F 53% 30.20 in 10.0 mi WSW 10.4 mph 16.1 mph N/A   Clear
10:15 AM 46.9 °F - 29.3 °F 50% 30.20 in 10.0 mi SW 5.8 mph - N/A   Clear
10:35 AM 48.4 °F - 29.3 °F 48% 30.19 in 10.0 mi WSW 6.9 mph - N/A   Clear
10:55 AM 49.1 °F - 28.6 °F 45% 30.19 in 10.0 mi West 10.4 mph - N/A   Clear
11:15 AM 51.3 °F - 30.0 °F 44% 30.19 in 10.0 mi SW 8.1 mph - N/A   Clear
11:35 AM 51.8 °F - 28.0 °F 40% 30.18 in 10.0 mi WSW 6.9 mph - N/A   Clear
11:55 AM 52.2 °F - 26.6 °F 37% 30.18 in 10.0 mi West 4.6 mph - N/A   Clear
12:15 PM 52.9 °F - 27.3 °F 37% 30.17 in 10.0 mi WSW 5.8 mph - N/A   Clear
12:35 PM 53.4 °F - 25.7 °F 34% 30.16 in 10.0 mi WSW 9.2 mph - N/A   Clear
12:55 PM 54.5 °F - 24.3 °F 31% 30.15 in 10.0 mi WNW 3.5 mph - N/A   Clear
1:15 PM 54.9 °F - 26.1 °F 33% 30.14 in 10.0 mi WSW 5.8 mph - N/A   Clear
1:35 PM 56.7 °F - 25.9 °F 31% 30.13 in 10.0 mi SSW 9.2 mph - N/A   Clear
1:55 PM 57.0 °F - 26.1 °F 30% 30.12 in 10.0 mi SSW 8.1 mph - N/A   Clear
2:15 PM 56.5 °F - 24.1 °F 29% 30.10 in 10.0 mi SW 4.6 mph - N/A   Clear
2:35 PM 57.9 °F - 25.9 °F 29% 30.09 in 10.0 mi SSW 6.9 mph - N/A   Clear
2:55 PM 58.1 °F - 23.9 °F 27% 30.08 in 10.0 mi South 9.2 mph - N/A   Clear
3:15 PM 58.6 °F - 23.4 °F 26% 30.07 in 10.0 mi South 4.6 mph - N/A   Clear
3:35 PM 59.0 °F - 23.0 °F 25% 30.06 in 10.0 mi South 11.5 mph - N/A   Clear
3:55 PM 58.6 °F - 23.5 °F 26% 30.06 in 10.0 mi South 6.9 mph - N/A   Clear
4:15 PM 58.1 °F - 23.2 °F 26% 30.05 in 10.0 mi South 5.8 mph - N/A   Clear
4:35 PM 57.7 °F - 22.8 °F 26% 30.04 in 10.0 mi South 9.2 mph - N/A   Clear
4:55 PM 57.4 °F - 23.2 °F 27% 30.03 in 10.0 mi South 4.6 mph - N/A   Clear
5:15 PM 57.2 °F - 21.7 °F 25% 30.02 in 10.0 mi South 5.8 mph - N/A   Clear
5:35 PM 56.3 °F - 22.6 °F 27% 30.02 in 10.0 mi South 5.8 mph - N/A   Clear
5:55 PM 55.4 °F - 22.5 °F 28% 30.01 in 10.0 mi South 5.8 mph - N/A   Clear
6:15 PM 55.2 °F - 22.1 °F 28% 30.00 in 10.0 mi South 6.9 mph - N/A   Clear
6:35 PM 54.9 °F - 23.0 °F 29% 30.00 in 10.0 mi South 6.9 mph - N/A   Clear
6:55 PM 54.3 °F - 23.9 °F 31% 29.99 in 10.0 mi South 6.9 mph - N/A   Clear
7:15 PM 54.0 °F - 24.6 °F 32% 29.99 in 10.0 mi South 9.2 mph - N/A   Clear
7:30 PM 54.1 °F - 24.8 °F 32% 29.97 in 10.0 mi South 10.4 mph - N/A   Clear
7:55 PM 53.1 °F - 25.7 °F 35% 29.95 in 10.0 mi South 9.2 mph - N/A   Clear
8:15 PM 52.9 °F - 26.1 °F 35% 29.95 in 10.0 mi South 8.1 mph - N/A   Clear
8:35 PM 52.2 °F - 26.2 °F 37% 29.95 in 10.0 mi South 8.1 mph - N/A   Clear
8:55 PM 50.0 °F - 27.3 °F 41% 29.95 in 10.0 mi South 9.2 mph - N/A   Clear
9:15 PM 50.2 °F - 26.8 °F 40% 29.96 in 10.0 mi South 8.1 mph - N/A   Clear
9:35 PM 50.0 °F - 26.2 °F 40% 29.96 in 10.0 mi South 5.8 mph - N/A   Clear
9:55 PM 50.4 °F - 25.3 °F 38% 29.95 in 10.0 mi SSE 5.8 mph - N/A   Clear
10:15 PM 50.4 °F - 25.3 °F 38% 29.94 in 10.0 mi South 8.1 mph - N/A   Clear
10:35 PM 50.4 °F - 26.1 °F 39% 29.94 in 10.0 mi South 6.9 mph - N/A   Clear
10:55 PM 50.2 °F - 26.6 °F 40% 29.94 in 10.0 mi South 6.9 mph - N/A   Scattered Clouds
11:15 PM 50.7 °F - 25.7 °F 38% 29.94 in 10.0 mi South 5.8 mph - N/A   Mostly Cloudy
11:35 PM 51.8 °F - 25.3 °F 36% 29.93 in 10.0 mi South 8.1 mph - N/A   Overcast
11:55 PM 52.5 °F - 25.0 °F 34% 29.92 in 10.0 mi South 8.1 mph - N/A   Overcast